x

South Moresby (46147) Wave Buoy

5:00am - Sat 30th Jul 2016 All times are PDT. -7 hours from GMT.

  • Sig Wave height 5.9ft
  • Peak Period 6s
  • Wind
    20mph, 25mph gusts
  • Sea Temp 56°f
  • Air Temp 57°f
  • Sea Pressure 1022.1mb
  • South Moresby
  • South Moresby

More Historic Weather Station data

Upgrade to MSW Pro to gain access to the past 30 days of data for over 8000 Wavebouys and Weather Stations around the globe.

Join Pro

Comparision Forecast

View Surf forecast
   
Sat 07/30 5:00am 6ft 6s 20 25 mph 1022.1mb 56f 57f
4:00am 6ft 6s 20 27 mph 1022.3mb 56f 57f
3:00am 6.5ft 7s 20 25 mph 1022.5mb 57f 57f
2:00am 6ft 7s 22
mph
1022.6mb 57f 58f
1:00am 6ft 7s 22 27 mph 1022.6mb 56f 58f
12:00am 5.5ft 5s 25 29 mph 1022.5mb 56f 58f
Fri 07/29 11:00pm 6ft 6s 22 27 mph 1023.1mb 56f 58f
10:00pm 6.5ft 6s 25 29 mph 1023mb 56f 58f
9:00pm 6ft 6s 27 31 mph 1022.9mb 57f 58f
8:00pm 6ft 6s 27 31 mph 1023.1mb 56f 58f
7:00pm 5ft 6s 22 27 mph 1023.8mb 56f 59f
6:00pm 5.5ft 6s 22 27 mph 1024.1mb 56f 59f
5:00pm 5ft 5s 25 29 mph 1024.4mb 56f 58f
4:00pm 4.5ft 5s 22 27 mph 1024.7mb 56f 58f
3:00pm 5ft 5s 20 25 mph 1024.8mb 56f 58f
2:00pm 4.5ft 5s 20 27 mph 1024.9mb 56f 58f
1:00pm 4.5ft 8s 20 25 mph 1024.7mb 56f 58f
12:00pm 4.5ft 5s 20 25 mph 1024.7mb 56f 58f
11:00am 4.5ft 8s 20 25 mph 1024.8mb 56f 58f
10:00am 4.5ft 5s 18 22 mph 1024.7mb 56f 58f
9:00am 4.5ft 6s 20 22 mph 1024.5mb 56f 58f
8:00am 4.5ft 8s 13 18 mph 1024.5mb 56f 58f
7:00am 4.5ft 8s 18 20 mph 1024.4mb 57f 58f
6:00am 4.5ft 7s 18 20 mph 1024.5mb 58f 58f
5:00am 4.5ft 8s 18 22 mph 1024.4mb 59f 58f
4:00am 4.5ft 8s 16 20 mph 1024.8mb 58f 58f
3:00am 4.5ft 8s 18 22 mph 1024.9mb 58f 59f
2:00am 4.5ft 8s 20 25 mph 1024.8mb 58f 59f
1:00am 4.5ft 8s 20 25 mph 1024.6mb 59f 59f
12:00am 4.5ft 8s 20 25 mph 1024.5mb 58f 59f
Thu 07/28 11:00pm 4ft 8s 18 22 mph 1024.5mb 56f 59f
10:00pm 3.5ft 8s 18 20 mph 1024.4mb 57f 59f
9:00pm 4ft 8s 16 18 mph 1024.3mb 58f 59f
8:00pm 4.5ft 8s 16 20 mph 1024.5mb 57f 59f
7:00pm 4ft 8s 13 18 mph 1024.8mb 58f 59f
6:00pm 4.5ft 8s 13 16 mph 1025.1mb 58f 59f
5:00pm 4.5ft 7s 11 13 mph 1025.4mb 58f 60f
4:00pm 4ft 8s 13 18 mph 1025.7mb 59f 59f
3:00pm 4ft 8s 13 16 mph 1025.8mb 59f 60f
2:00pm 3.5ft 8s 11 13 mph 1026mb 60f 60f
1:00pm 3.5ft 8s 13
mph
1026mb 60f 60f
12:00pm 4ft 8s 13 16 mph 1025.6mb 59f 59f
11:00am 4ft 8s 13
mph
1025.4mb 57f 59f
10:00am 4.5ft 8s 9 11 mph 1025.4mb 58f 59f
9:00am 3.5ft 7s 7 9 mph 1025.3mb 57f 59f
8:00am 3.5ft 8s 7 9 mph 1025.3mb 57f 58f
7:00am 3.5ft 7s 7 9 mph 1025.3mb 57f 58f
6:00am 3.5ft 8s 7 9 mph 1025mb 57f 58f
5:00am 3.5ft 7s 7 9 mph 1025mb 58f 58f
4:00am 3.5ft 7s 9 11 mph 1025.2mb 56f 58f
3:00am 3.5ft 8s 11 16 mph 1025.1mb 56f 59f
2:00am 3.5ft 8s 9 11 mph 1025.1mb 57f 60f
1:00am 3ft 8s 9
mph
1025.3mb 59f 60f
12:00am 3ft 8s 9 11 mph 1025.5mb 58f 59f
Wed 07/27 11:00pm 2.5ft 8s 9 13 mph 1025.4mb 58f 58f
10:00pm 3ft 8s 7
mph
1025.2mb 58f 59f
9:00pm 3ft 6s 7
mph
1025.2mb 58f 59f
8:00pm 3.5ft 7s 4
mph
1024.9mb 58f 59f
7:00pm 3ft 8s 4 7 mph 1025.3mb 58f 60f
6:00pm 3ft 14s 7
mph
1025.3mb 56f 59f
5:00pm 3ft 8s 4 7 mph 1025.5mb 58f 59f
4:00pm 3ft 8s 4 7 mph 1025.6mb 58f 60f
3:00pm 3.5ft 8s 4 7 mph 1026mb 58f 60f
2:00pm 3.5ft 7s 9 11 mph 1025.7mb 57f 60f
1:00pm 3ft 7s 7 9 mph 1025.6mb 57f 60f
12:00pm 3ft 7s 9
mph
1025.2mb 58f 60f
11:00am 3ft 7s 9
mph
1024.8mb 58f 59f
10:00am 3ft 14s 7 9 mph 1024.7mb 58f 59f
9:00am 3.5ft 7s 7 9 mph 1024.6mb 58f 59f
8:00am 3.5ft 7s 7
mph
1024.4mb 58f 59f
7:00am 3.5ft 7s 7
mph
1024.1mb 58f 59f
6:00am 3.5ft 6s 7
mph
1024mb 58f 59f
5:00am 3.5ft 7s 4
mph
1023.9mb 58f 58f
4:00am 3.5ft 7s 4 7 mph 1024mb 58f 58f
3:00am 3.5ft 8s 4 7 mph 1023.9mb 57f 58f
2:00am 3.5ft 8s 7 9 mph 1024.1mb 57f 58f
1:00am 3.5ft 7s 9
mph
1024.2mb 58f 59f
12:00am 3.5ft 7s 9
mph
1024.3mb 58f 58f
Tue 07/26 11:00pm 3.5ft 8s 7 9 mph 1024.3mb 58f 58f
10:00pm 3.5ft 7s 7 9 mph 1024.2mb 59f 59f
9:00pm 3.5ft 8s 7
mph
1024mb 59f 60f
8:00pm 3.5ft 8s 4 7 mph 1024mb 59f 60f
7:00pm 4ft 8s 7 9 mph 1024.1mb 56f 59f
6:00pm 3.5ft 6s 9 11 mph 1024.3mb 56f 58f
5:00pm 3.5ft 6s 7 9 mph 1024.2mb 57f 59f
4:00pm 3.5ft 9s 7
mph
1024.3mb 57f 59f
3:00pm 3.5ft 9s 7
mph
1024.4mb 56f 58f
2:00pm 3.5ft 9s 7 9 mph 1024.3mb 56f 58f